Time;durP1;ratioP1;P1;durP2;ratioP2;P2;SDS_P1;SDS_P2;PMS_P1;PMS_P2;Temp;Humidity;BMP_temperature;BMP_pressure;BME280_temperature;BME280_humidity;BME280_pressure;Samples;Min_cycle;Max_cycle;Signal;HPM_P1;HPM_P2
2023/03/17 00:01:09;;;;;;;7.97;4.00;;;;;;;4.58;100.00;96022.72;5082772;28;20243;-93
2023/03/17 00:03:40;;;;;;;8.60;4.17;;;;;;;4.55;100.00;96015.16;5075577;28;20031;-92
2023/03/17 00:06:14;;;;;;;7.13;3.93;;;;;;;4.58;100.00;96022.72;5064793;28;20032;-92
2023/03/17 00:08:41;;;;;;;7.30;4.00;;;;;;;4.55;100.00;96023.78;5064352;28;20035;-93
2023/03/17 00:11:12;;;;;;;9.07;4.00;;;;;;;4.56;100.00;96020.25;5061980;28;20074;-93
2023/03/17 00:13:44;;;;;;;7.67;4.20;;;;;;;4.51;100.00;96013.75;5089303;28;20032;-93
2023/03/17 00:16:23;;;;;;;9.23;4.17;;;;;;;4.53;100.00;96019.66;5062180;28;20043;-93
2023/03/17 00:18:52;;;;;;;7.60;4.40;;;;;;;4.51;100.00;96024.19;5061734;28;20036;-93
2023/03/17 00:21:26;;;;;;;7.03;4.40;;;;;;;4.50;100.00;96020.75;5076371;28;20115;-93
2023/03/17 00:23:52;;;;;;;7.43;3.87;;;;;;;4.46;100.00;96014.97;5062169;28;20635;-93
2023/03/17 00:26:20;;;;;;;10.60;4.67;;;;;;;4.39;100.00;96013.00;5061250;28;20090;-94
2023/03/17 00:28:47;;;;;;;7.13;4.17;;;;;;;4.37;100.00;96014.91;5059668;28;20050;-93
2023/03/17 00:31:19;;;;;;;8.67;4.10;;;;;;;4.34;100.00;96015.97;5054822;28;20032;-93
2023/03/17 00:33:46;;;;;;;8.73;4.60;;;;;;;4.39;100.00;96011.22;5062404;28;20031;-93
2023/03/17 00:36:26;;;;;;;9.47;4.47;;;;;;;4.44;100.00;96006.47;5061397;28;20040;-93
2023/03/17 00:38:54;;;;;;;7.37;3.90;;;;;;;4.28;100.00;96006.06;5064184;28;20039;-92
2023/03/17 00:41:33;;;;;;;8.30;4.53;;;;;;;4.28;100.00;96000.84;5060096;28;20047;-93
2023/03/17 00:43:59;;;;;;;7.77;4.47;;;;;;;4.27;100.00;96007.03;5060891;28;20071;-93
2023/03/17 00:46:34;;;;;;;9.27;5.13;;;;;;;4.26;100.00;96002.78;5059880;28;20028;-93
2023/03/17 00:49:09;;;;;;;8.40;4.67;;;;;;;4.14;100.00;95998.56;5057531;28;20473;-93
2023/03/17 00:51:40;;;;;;;9.40;4.87;;;;;;;4.18;100.00;95999.97;5060087;28;20094;-93
2023/03/17 00:54:08;;;;;;;9.43;4.20;;;;;;;4.13;100.00;95991.72;5060151;28;20090;-93
2023/03/17 00:56:33;;;;;;;7.77;4.83;;;;;;;4.15;100.00;95985.41;5057073;28;20032;-93
2023/03/17 00:59:11;;;;;;;10.50;4.77;;;;;;;4.04;100.00;95989.88;5056319;28;20159;-93
2023/03/17 01:01:40;;;;;;;9.87;5.07;;;;;;;3.97;100.00;95982.56;5070156;28;20020;-93
2023/03/17 01:04:09;;;;;;;11.37;4.47;;;;;;;4.00;100.00;95974.50;5077628;28;20027;-93
2023/03/17 01:06:36;;;;;;;10.20;4.73;;;;;;;3.94;100.00;95968.97;5076460;28;20028;-92
2023/03/17 01:09:03;;;;;;;9.03;4.30;;;;;;;3.98;100.00;95968.59;5061419;28;20060;-93
2023/03/17 01:11:35;;;;;;;8.43;4.83;;;;;;;3.94;100.00;95966.38;5060889;28;20489;-93
2023/03/17 01:14:14;;;;;;;7.80;4.63;;;;;;;3.93;100.00;95962.13;5057978;28;20036;-93
2023/03/17 01:16:53;;;;;;;11.17;4.87;;;;;;;3.97;100.00;95966.13;5054750;28;20036;-93
2023/03/17 01:19:19;;;;;;;8.20;4.90;;;;;;;3.92;100.00;95950.91;5061562;28;20152;-93
2023/03/17 01:21:46;;;;;;;9.63;4.10;;;;;;;3.97;100.00;95946.13;5061689;28;20028;-93
2023/03/17 01:24:13;;;;;;;9.67;5.50;;;;;;;4.03;100.00;95950.00;5060295;28;20125;-93
2023/03/17 01:26:39;;;;;;;10.63;5.63;;;;;;;3.97;100.00;95947.91;5070618;28;20039;-93
2023/03/17 01:29:06;;;;;;;9.40;5.53;;;;;;;3.93;100.00;95955.13;5063246;28;20024;-91
2023/03/17 01:31:35;;;;;;;8.17;5.10;;;;;;;3.92;100.00;95945.69;5060561;28;20031;-93
2023/03/17 01:34:01;;;;;;;9.43;4.73;;;;;;;3.95;100.00;95948.03;5067677;28;20031;-92
2023/03/17 01:36:31;;;;;;;9.10;4.93;;;;;;;3.97;100.00;95945.31;5061557;28;20036;-93
2023/03/17 01:38:57;;;;;;;10.37;5.70;;;;;;;3.99;100.00;95943.38;5062263;28;20040;-93
2023/03/17 01:41:31;;;;;;;9.90;5.33;;;;;;;3.93;100.00;95939.53;5067520;28;20491;-93
2023/03/17 01:43:58;;;;;;;9.30;5.57;;;;;;;3.89;100.00;95948.53;5060279;28;20032;-92
2023/03/17 01:46:37;;;;;;;8.07;4.63;;;;;;;3.92;100.00;95934.44;5067177;28;20028;-92
2023/03/17 01:49:18;;;;;;;10.37;5.70;;;;;;;3.92;100.00;95944.84;5081335;28;20485;-92
2023/03/17 01:52:13;;;;;;;8.83;5.33;;;;;;;3.98;100.00;95937.38;5073288;28;20032;-93
2023/03/17 01:54:52;;;;;;;10.53;5.40;;;;;;;3.95;100.00;95926.38;5057380;28;20029;-92
2023/03/17 01:57:43;;;;;;;10.33;5.27;;;;;;;4.01;100.00;95925.88;5060047;28;20074;-92
2023/03/17 02:00:17;;;;;;;9.80;5.63;;;;;;;3.95;100.00;95927.22;5059798;28;20131;-93
2023/03/17 02:02:46;;;;;;;7.60;4.67;;;;;;;3.94;100.00;95932.53;5063400;28;20040;-92
2023/03/17 02:05:16;;;;;;;10.03;5.40;;;;;;;3.95;100.00;95921.19;5075521;28;20020;-92
2023/03/17 02:07:46;;;;;;;11.17;5.13;;;;;;;3.89;100.00;95921.69;5059361;28;20047;-93
2023/03/17 02:10:14;;;;;;;10.67;5.03;;;;;;;3.81;100.00;95911.91;5059235;28;20401;-92
2023/03/17 02:12:54;;;;;;;11.07;5.53;;;;;;;3.85;100.00;95931.50;5075646;28;20404;-92
2023/03/17 02:15:23;;;;;;;9.37;5.40;;;;;;;3.76;100.00;95927.91;5058228;28;20036;-93
2023/03/17 02:17:50;;;;;;;9.77;5.50;;;;;;;3.72;100.00;95925.66;5058388;28;20066;-92
2023/03/17 02:20:16;;;;;;;10.50;5.87;;;;;;;3.72;100.00;95916.09;5060810;28;20033;-92
2023/03/17 02:22:49;;;;;;;8.80;5.57;;;;;;;3.69;100.00;95920.69;5059468;28;20050;-92
2023/03/17 02:25:16;;;;;;;9.88;5.40;;;;;;;3.71;100.00;95922.22;5062427;28;20040;-92
2023/03/17 02:27:45;;;;;;;10.07;5.17;;;;;;;3.85;100.00;95926.31;5068351;28;20032;-93
2023/03/17 02:30:20;;;;;;;8.67;5.30;;;;;;;3.82;100.00;95926.56;5061269;28;20068;-92
2023/03/17 02:32:54;;;;;;;9.80;5.43;;;;;;;3.95;100.00;95914.19;5059028;28;20061;-93
2023/03/17 02:35:21;;;;;;;9.03;5.23;;;;;;;3.97;100.00;95919.28;5067954;28;20119;-92
2023/03/17 02:37:49;;;;;;;10.07;4.90;;;;;;;3.97;100.00;95911.50;5061938;28;20482;-92
2023/03/17 02:40:16;;;;;;;8.47;5.00;;;;;;;3.96;100.00;95918.47;5062893;28;20048;-92
2023/03/17 02:42:42;;;;;;;8.60;4.93;;;;;;;4.01;100.00;95910.28;5066654;28;20024;-92
2023/03/17 02:45:15;;;;;;;9.00;4.50;;;;;;;4.09;100.00;95900.06;5066125;28;20039;-93
2023/03/17 02:47:41;;;;;;;5.80;3.80;;;;;;;4.00;100.00;95893.84;5063240;28;20028;-93
2023/03/17 02:50:16;;;;;;;9.83;5.13;;;;;;;4.00;100.00;95903.44;5062191;28;20036;-93
2023/03/17 02:52:42;;;;;;;9.37;4.90;;;;;;;3.96;100.00;95913.28;5063106;28;20086;-94
2023/03/17 02:55:09;;;;;;;9.23;5.27;;;;;;;3.89;100.00;95913.88;5062016;28;20036;-93
2023/03/17 02:57:35;;;;;;;10.37;4.93;;;;;;;3.90;100.00;95916.38;5060585;28;20086;-93
2023/03/17 06:58:23;;;;;;;13.07;6.43;;;;;;;6.16;100.00;95816.72;5087689;28;20132;-87
2023/03/17 07:01:03;;;;;;;9.13;5.57;;;;;;;6.98;100.00;95821.19;5073600;28;20122;-86
2023/03/17 07:03:35;;;;;;;10.33;6.17;;;;;;;7.66;100.00;95831.13;5057532;28;20652;-87
2023/03/17 07:06:01;;;;;;;10.57;5.47;;;;;;;7.84;100.00;95832.91;5061421;28;20074;-87
2023/03/17 07:08:29;;;;;;;10.43;6.00;;;;;;;8.17;100.00;95853.13;5072529;28;20036;-87
2023/03/17 07:10:56;;;;;;;10.47;6.00;;;;;;;7.89;100.00;95854.22;5062860;28;20071;-88
2023/03/17 07:13:22;;;;;;;12.47;6.00;;;;;;;8.02;100.00;95852.84;5063677;28;20063;-87
2023/03/17 07:23:32;;;;;;;12.93;7.00;;;;;;;7.40;100.00;95856.41;5042020;28;20077;-87
2023/03/17 07:26:05;;;;;;;11.87;6.67;;;;;;;7.59;100.00;95851.03;5071853;28;20043;-87
2023/03/17 07:28:39;;;;;;;13.13;6.30;;;;;;;7.50;100.00;95844.91;5075564;28;20048;-87
2023/03/17 07:31:49;;;;;;;14.13;5.97;;;;;;;7.59;100.00;95850.22;5069865;28;20123;-87
2023/03/17 07:34:36;;;;;;;11.20;5.40;;;;;;;7.71;100.00;95839.38;5059152;28;20040;-88
2023/03/17 07:40:49;;;;;;;11.13;5.90;;;;;;;7.88;100.00;95829.84;5083972;28;20576;-96
2023/03/17 07:47:49;;;;;;;12.37;5.63;;;;;;;8.51;100.00;95815.69;5082745;28;20071;-96
2023/03/17 07:54:03;;;;;;;11.77;5.23;;;;;;;8.94;100.00;95821.75;5083872;28;20067;-96
2023/03/17 07:56:30;;;;;;;10.60;5.03;;;;;;;8.94;100.00;95825.19;5067520;28;20041;-96
2023/03/17 08:02:43;;;;;;;11.30;4.73;;;;;;;9.65;100.00;95808.09;5083400;28;20067;-96
2023/03/17 08:08:56;;;;;;;9.20;5.93;;;;;;;9.92;100.00;95806.13;5079393;28;20118;-96
2023/03/17 08:11:22;;;;;;;10.10;5.37;;;;;;;10.04;100.00;95810.06;5061974;28;20498;-96
2023/03/17 08:13:48;;;;;;;8.70;5.77;;;;;;;9.63;100.00;95811.88;5062307;28;20070;-96
2023/03/17 08:20:03;;;;;;;9.03;4.83;;;;;;;9.81;100.00;95819.59;5077852;28;20155;-96
2023/03/17 08:22:29;;;;;;;9.33;5.83;;;;;;;10.24;100.00;95817.59;5060487;28;20052;-96
2023/03/17 08:24:55;;;;;;;8.50;5.50;;;;;;;10.54;100.00;95806.34;5059285;28;20036;-96
2023/03/17 08:31:12;;;;;;;8.23;4.80;;;;;;;11.27;100.00;95810.47;5077520;28;20051;-96
2023/03/17 08:37:25;;;;;;;9.57;4.50;;;;;;;10.25;100.00;95806.06;5077250;28;20165;-96
2023/03/17 08:40:06;;;;;;;12.20;3.90;;;;;;;9.94;100.00;95812.03;5065524;28;20060;-96
2023/03/17 10:29:31;;;;;;;4.65;2.05;;;;;;;17.67;51.09;95741.75;5738533;23;20291;-93
2023/03/17 10:33:38;;;;;;;5.35;1.67;;;;;;;17.50;49.92;95745.94;4975903;28;20536;-93
2023/03/17 11:16:53;;;;;;;2.67;1.67;;;;;;;20.46;41.73;95724.97;4964318;28;20030;-87
2023/03/17 11:19:50;;;;;;;5.10;1.55;;;;;;;20.68;40.94;95722.53;4964599;28;20039;-88
2023/03/17 11:22:36;;;;;;;4.13;1.70;;;;;;;21.32;40.57;95725.13;4922156;28;20046;-85
2023/03/17 11:25:10;;;;;;;2.42;1.45;;;;;;;21.69;41.26;95710.53;4954957;28;20030;-87
2023/03/17 11:27:43;;;;;;;4.32;1.48;;;;;;;21.27;40.79;95711.66;4940122;28;20049;-86
2023/03/17 11:30:41;;;;;;;5.70;1.20;;;;;;;21.96;40.53;95708.03;4966255;28;20039;-88
2023/03/17 11:33:45;;;;;;;6.35;2.40;;;;;;;23.25;38.49;95699.63;4979013;28;20042;-89
2023/03/17 11:36:38;;;;;;;3.67;1.45;;;;;;;22.56;36.70;95702.00;4963485;28;20030;-85
2023/03/17 11:43:26;;;;;;;2.45;1.55;;;;;;;22.41;38.27;95699.94;4985437;28;20057;-89
2023/03/17 11:46:32;;;;;;;4.03;1.52;;;;;;;22.21;37.07;95697.75;4951266;28;20043;-94
2023/03/17 11:49:23;;;;;;;5.32;1.83;;;;;;;22.66;36.82;95690.59;4956218;28;20042;-89
2023/03/17 11:52:28;;;;;;;5.47;1.92;;;;;;;22.53;36.88;95695.25;4958072;28;20027;-88
2023/03/17 11:54:57;;;;;;;2.35;1.23;;;;;;;22.09;39.65;95691.66;4950679;28;20043;-88
2023/03/17 11:57:55;;;;;;;4.57;1.35;;;;;;;21.97;40.32;95693.63;4950766;28;20038;-89
2023/03/17 12:00:33;;;;;;;4.22;1.85;;;;;;;21.11;41.83;95683.00;4955804;28;20178;-93
2023/03/17 12:03:28;;;;;;;4.18;1.50;;;;;;;22.16;38.17;95678.94;4925632;29;20039;-93
2023/03/17 12:10:32;;;;;;;4.82;1.27;;;;;;;21.72;37.57;95675.28;4989835;28;20062;-96
2023/03/17 12:13:41;;;;;;;4.05;1.13;;;;;;;21.44;36.84;95673.47;4972452;28;20038;-96
2023/03/17 14:06:59;;;;;;;2.42;1.33;;;;;;;18.63;39.95;95595.88;5863310;23;20035;-90
2023/03/17 14:09:45;;;;;;;3.92;1.35;;;;;;;18.79;40.09;95591.81;4960058;28;20045;-89
2023/03/17 14:12:49;;;;;;;5.78;2.92;;;;;;;18.77;41.04;95592.00;4949487;28;20043;-91
2023/03/17 14:16:13;;;;;;;2.60;1.10;;;;;;;18.86;42.54;95583.72;4949565;28;20460;-90
2023/03/17 14:18:59;;;;;;;4.72;1.45;;;;;;;18.86;43.58;95589.03;4977943;28;20492;-90
2023/03/17 14:21:47;;;;;;;4.53;1.55;;;;;;;18.62;42.43;95588.94;4988597;28;20085;-89
2023/03/17 14:28:49;;;;;;;5.07;1.40;;;;;;;18.86;43.01;95581.88;4907696;29;20044;-93
2023/03/17 14:32:20;;;;;;;4.50;1.25;;;;;;;18.78;42.03;95576.88;4894308;29;20056;-93
2023/03/17 14:34:56;;;;;;;5.25;1.80;;;;;;;18.75;43.30;95575.47;4884206;29;20127;-92
2023/03/17 14:37:25;;;;;;;3.50;1.65;;;;;;;18.70;42.85;95567.28;4909876;29;20395;-88
2023/03/17 14:40:46;;;;;;;4.13;1.60;;;;;;;18.60;43.62;95569.69;4939609;29;20071;-94
2023/03/17 14:43:35;;;;;;;3.67;1.63;;;;;;;18.63;43.26;95568.44;4921366;28;20319;-95
2023/03/17 14:46:03;;;;;;;4.05;1.50;;;;;;;19.07;43.22;95568.00;4917868;29;20046;-95
2023/03/17 14:48:41;;;;;;;5.25;1.58;;;;;;;18.78;43.90;95561.69;4939775;29;20043;-94
2023/03/17 14:51:29;;;;;;;4.50;1.35;;;;;;;18.73;44.97;95560.75;4947608;29;20042;-95
2023/03/17 14:54:00;;;;;;;3.03;1.50;;;;;;;19.08;44.35;95550.19;4945266;29;20031;-95
2023/03/17 15:00:52;;;;;;;3.60;1.75;;;;;;;18.92;41.37;95556.97;4976996;28;20089;-93
2023/03/17 15:03:21;;;;;;;3.63;1.63;;;;;;;19.04;41.18;95555.13;4921948;28;20062;-93
2023/03/17 15:05:48;;;;;;;4.05;1.20;;;;;;;18.85;39.24;95556.28;4958098;29;20031;-93
2023/03/17 15:11:27;;;;;;;2.95;1.27;;;;;;;18.50;38.72;95554.25;4961600;28;20047;-93
2023/03/17 15:14:11;;;;;;;1.85;1.17;;;;;;;18.21;39.20;95555.03;4973965;28;20050;-92
2023/03/17 15:16:38;;;;;;;4.97;1.30;;;;;;;18.18;40.35;95550.19;4959919;28;20038;-93
2023/03/17 15:22:56;;;;;;;6.20;1.13;;;;;;;17.86;39.51;95531.72;4981357;28;20051;-96
2023/03/17 15:25:23;;;;;;;2.25;1.02;;;;;;;17.56;39.58;95545.69;4965017;28;20146;-95
2023/03/17 15:27:50;;;;;;;1.95;1.17;;;;;;;17.60;40.91;95540.75;4944449;29;20055;-96
2023/03/17 15:34:03;;;;;;;4.28;1.30;;;;;;;17.54;41.18;95549.59;4961827;29;20042;-95
2023/03/17 15:36:46;;;;;;;2.95;1.13;;;;;;;17.46;41.52;95544.56;4946793;29;20043;-95
2023/03/17 15:39:12;;;;;;;3.38;1.02;;;;;;;17.18;42.91;95541.34;4963875;28;20053;-96
2023/03/17 15:45:25;;;;;;;5.15;1.75;;;;;;;17.24;47.31;95550.28;4963629;29;20042;-96
2023/03/17 15:47:51;;;;;;;4.97;1.60;;;;;;;17.20;48.99;95555.22;4945978;29;20521;-96
2023/03/17 15:50:22;;;;;;;5.47;1.73;;;;;;;17.24;47.76;95550.28;4949370;29;20494;-94
2023/03/17 15:52:59;;;;;;;3.90;1.80;;;;;;;16.95;51.92;95549.88;4982062;28;20033;-95
2023/03/17 15:55:30;;;;;;;4.47;1.65;;;;;;;16.82;54.28;95549.16;4977508;28;20039;-95
2023/03/17 16:01:26;;;;;;;3.58;1.92;;;;;;;16.72;49.91;95553.06;4988812;28;20106;-96
2023/03/17 16:03:53;;;;;;;5.75;2.35;;;;;;;16.51;54.57;95556.06;4978950;28;20034;-96
2023/03/17 16:06:35;;;;;;;7.22;2.25;;;;;;;16.36;54.38;95563.50;4995968;28;20030;-93
2023/03/17 16:09:15;;;;;;;8.73;2.08;;;;;;;16.25;57.38;95557.81;4978888;28;20070;-96
2023/03/17 16:11:57;;;;;;;4.95;1.90;;;;;;;16.24;57.29;95561.50;4980204;28;20061;-96
2023/03/17 17:25:08;;;;;;;40.63;21.17;;;;;;;14.40;100.00;95566.69;4987959;28;20065;-88
2023/03/17 17:27:54;;;;;;;11.40;6.97;;;;;;;14.09;100.00;95570.66;4976403;28;20034;-94
2023/03/17 17:30:24;;;;;;;16.13;9.60;;;;;;;14.14;100.00;95565.56;4941896;29;20039;-94
2023/03/17 17:32:50;;;;;;;11.20;6.23;;;;;;;13.97;100.00;95572.22;4942097;29;20041;-94
2023/03/17 17:35:17;;;;;;;10.83;7.33;;;;;;;13.87;100.00;95564.63;4943282;28;20047;-92
2023/03/17 17:37:43;;;;;;;15.90;8.83;;;;;;;13.85;100.00;95560.59;4980871;28;20552;-93
2023/03/17 17:40:15;;;;;;;13.87;9.07;;;;;;;13.74;100.00;95569.03;4970340;28;20109;-90
2023/03/17 17:42:42;;;;;;;14.17;8.83;;;;;;;13.57;100.00;95579.09;4975750;28;20015;-88
2023/03/17 17:45:09;;;;;;;12.20;7.87;;;;;;;13.51;100.00;95574.59;4987169;28;20062;-93
2023/03/17 17:47:35;;;;;;;8.97;5.40;;;;;;;13.49;100.00;95579.28;4973640;28;20047;-92
2023/03/17 17:50:06;;;;;;;12.13;5.20;;;;;;;13.32;100.00;95576.91;4967746;28;20030;-93
2023/03/17 17:52:36;;;;;;;11.13;5.17;;;;;;;13.30;100.00;95576.28;4974018;28;20035;-93
2023/03/17 17:55:03;;;;;;;9.73;5.67;;;;;;;13.28;100.00;95586.25;4964946;28;20053;-92
2023/03/17 17:57:29;;;;;;;9.27;5.47;;;;;;;13.15;100.00;95580.81;4965640;28;20042;-93
2023/03/17 17:59:59;;;;;;;9.27;5.17;;;;;;;13.11;100.00;95585.69;4946755;29;20122;-93
2023/03/17 18:02:24;;;;;;;10.83;6.17;;;;;;;13.11;100.00;95584.84;4968991;28;20042;-93
2023/03/17 18:04:50;;;;;;;12.10;6.33;;;;;;;13.01;100.00;95589.63;4958553;29;20486;-92
2023/03/17 18:07:18;;;;;;;9.03;5.27;;;;;;;12.91;100.00;95596.06;4972227;28;20086;-92
2023/03/17 18:09:45;;;;;;;10.50;5.27;;;;;;;12.95;100.00;95594.66;4961699;28;20061;-93
2023/03/17 18:12:11;;;;;;;11.27;5.90;;;;;;;12.87;100.00;95602.69;4959137;28;20043;-93
2023/03/17 18:14:36;;;;;;;11.90;6.97;;;;;;;12.84;100.00;95599.63;4951072;28;20042;-91
2023/03/17 18:17:38;;;;;;;14.90;7.10;;;;;;;12.80;100.00;95603.66;4971841;28;20035;-89
2023/03/17 18:20:23;;;;;;;13.50;9.07;;;;;;;12.69;100.00;95600.50;4955220;28;20070;-91
2023/03/17 18:22:49;;;;;;;23.33;16.27;;;;;;;12.65;100.00;95607.16;4953014;28;20043;-92
2023/03/17 18:25:16;;;;;;;13.73;8.03;;;;;;;12.71;100.00;95602.97;4957657;28;20035;-94
2023/03/17 18:27:44;;;;;;;15.83;6.90;;;;;;;12.68;100.00;95608.63;4952176;28;20042;-93
2023/03/17 18:30:17;;;;;;;10.47;6.50;;;;;;;12.66;100.00;95610.63;4959279;28;20039;-92
2023/03/17 18:32:44;;;;;;;11.45;6.80;;;;;;;12.61;100.00;95605.91;4967102;28;20035;-92
2023/03/17 18:35:21;;;;;;;13.17;7.57;;;;;;;12.52;100.00;95604.38;4957688;28;20106;-92
2023/03/17 18:37:56;;;;;;;10.67;6.20;;;;;;;12.57;100.00;95609.91;4944561;28;20074;-92
2023/03/17 18:40:23;;;;;;;15.80;6.77;;;;;;;12.60;100.00;95608.72;4958962;28;20126;-92
2023/03/17 18:42:48;;;;;;;16.10;6.27;;;;;;;12.53;100.00;95610.47;4958798;28;20066;-92
2023/03/17 18:45:14;;;;;;;11.03;6.63;;;;;;;12.53;100.00;95621.03;4969711;28;20049;-92
2023/03/17 18:47:40;;;;;;;14.30;8.03;;;;;;;12.58;100.00;95616.03;4956758;28;20039;-92
2023/03/17 18:50:07;;;;;;;15.30;9.07;;;;;;;12.44;100.00;95630.84;4957835;28;20090;-92
2023/03/17 18:52:36;;;;;;;17.13;10.50;;;;;;;12.34;100.00;95623.25;4967071;28;20061;-92
2023/03/17 18:55:02;;;;;;;19.73;11.70;;;;;;;12.35;100.00;95627.53;4986406;28;20055;-92
2023/03/17 18:57:27;;;;;;;21.37;12.50;;;;;;;12.29;100.00;95627.44;4972799;28;20035;-92
2023/03/17 18:59:53;;;;;;;20.47;13.40;;;;;;;12.14;100.00;95638.00;4969986;28;20102;-92
2023/03/17 19:02:20;;;;;;;18.37;11.97;;;;;;;12.20;100.00;95634.63;4955014;29;20058;-92
2023/03/17 19:04:46;;;;;;;19.13;11.27;;;;;;;12.07;100.00;95629.19;4957450;28;20130;-92
2023/03/17 19:07:13;;;;;;;17.27;11.87;;;;;;;12.00;100.00;95632.56;4952890;28;20406;-91
2023/03/17 19:09:40;;;;;;;18.00;10.83;;;;;;;11.78;100.00;95629.00;4959816;28;20022;-92
2023/03/17 19:12:06;;;;;;;16.23;9.30;;;;;;;11.65;100.00;95630.63;4965060;28;20034;-92
2023/03/17 19:14:33;;;;;;;15.37;8.40;;;;;;;11.62;100.00;95623.91;4954766;28;20038;-92
2023/03/17 19:16:59;;;;;;;13.87;7.57;;;;;;;11.59;100.00;95621.63;4960228;28;20061;-91
2023/03/17 19:19:25;;;;;;;13.03;7.20;;;;;;;11.55;100.00;95620.34;4953453;28;20027;-92
2023/03/17 19:22:00;;;;;;;12.97;7.57;;;;;;;11.53;100.00;95624.97;4952866;28;20042;-92
2023/03/17 19:24:26;;;;;;;16.07;7.70;;;;;;;11.56;100.00;95621.97;4941258;29;20081;-91
2023/03/17 19:26:52;;;;;;;12.97;6.57;;;;;;;11.55;100.00;95626.44;4953870;28;20066;-92
2023/03/17 19:29:17;;;;;;;13.93;6.30;;;;;;;11.60;100.00;95633.78;4951997;28;20090;-91
2023/03/17 19:31:48;;;;;;;13.43;6.70;;;;;;;11.67;100.00;95633.88;4978977;28;20047;-91
2023/03/17 19:34:14;;;;;;;13.10;6.37;;;;;;;11.69;100.00;95635.34;4991454;28;20029;-92
2023/03/17 19:36:41;;;;;;;11.10;6.73;;;;;;;11.68;100.00;95630.28;4973259;28;20083;-91
2023/03/17 19:39:10;;;;;;;10.00;6.07;;;;;;;11.67;100.00;95636.50;4959317;28;20034;-92
2023/03/17 19:41:36;;;;;;;11.80;6.43;;;;;;;11.68;100.00;95638.97;4955635;28;20027;-92
2023/03/17 19:44:02;;;;;;;9.77;6.40;;;;;;;11.64;100.00;95636.91;4948886;28;20389;-91
2023/03/17 19:46:28;;;;;;;9.73;6.07;;;;;;;11.68;100.00;95643.44;4952462;28;20209;-92
2023/03/17 19:48:57;;;;;;;10.37;6.40;;;;;;;11.73;100.00;95643.69;4963006;28;20062;-92
2023/03/17 19:51:27;;;;;;;12.43;6.43;;;;;;;11.70;100.00;95641.41;4960123;28;20548;-91
2023/03/17 19:53:56;;;;;;;12.73;7.33;;;;;;;11.69;100.00;95643.25;4954497;28;20035;-92
2023/03/17 19:56:21;;;;;;;12.33;7.53;;;;;;;11.70;100.00;95642.25;4966419;28;20046;-92
2023/03/17 19:58:48;;;;;;;12.80;6.87;;;;;;;11.75;100.00;95644.34;4955688;28;20031;-93
2023/03/17 20:01:17;;;;;;;15.60;7.07;;;;;;;11.71;100.00;95641.25;4955252;28;20030;-93
2023/03/17 20:03:43;;;;;;;10.50;6.73;;;;;;;11.73;100.00;95636.59;4957375;28;20031;-93
2023/03/17 20:06:13;;;;;;;13.57;7.33;;;;;;;11.71;100.00;95641.25;4964240;28;20042;-93
2023/03/17 20:08:43;;;;;;;15.57;7.10;;;;;;;11.67;100.00;95641.78;4960216;28;20038;-93
2023/03/17 20:11:18;;;;;;;13.30;7.33;;;;;;;11.72;100.00;95642.06;4941353;28;20094;-91
2023/03/17 20:13:44;;;;;;;11.50;7.50;;;;;;;11.66;100.00;95642.78;4969629;28;20153;-93
2023/03/17 20:16:11;;;;;;;11.40;7.90;;;;;;;11.63;100.00;95648.41;4944241;28;20125;-94
2023/03/17 20:18:36;;;;;;;13.43;7.53;;;;;;;11.59;100.00;95645.31;4958077;28;20035;-93
2023/03/17 20:21:07;;;;;;;14.43;9.03;;;;;;;11.52;100.00;95647.03;4951054;28;20074;-93
2023/03/17 20:23:33;;;;;;;15.23;8.73;;;;;;;11.50;100.00;95644.59;4960071;28;20098;-93
2023/03/17 20:26:00;;;;;;;13.80;9.33;;;;;;;11.38;100.00;95653.09;4965802;28;20034;-93
2023/03/17 20:28:25;;;;;;;15.53;9.37;;;;;;;11.37;100.00;95644.41;4964313;28;20481;-93
2023/03/17 20:30:51;;;;;;;15.23;8.97;;;;;;;11.34;100.00;95652.66;4952901;28;20046;-94
2023/03/17 20:33:17;;;;;;;15.47;9.17;;;;;;;11.37;100.00;95644.41;4969559;28;20114;-93
2023/03/17 20:35:45;;;;;;;13.00;7.87;;;;;;;11.32;100.00;95649.34;4954951;28;20038;-93
2023/03/17 20:38:14;;;;;;;14.33;8.80;;;;;;;11.32;100.00;95662.53;4949360;28;20178;-93
2023/03/17 20:40:41;;;;;;;15.60;8.83;;;;;;;11.38;100.00;95651.28;4958680;28;20034;-94
2023/03/17 20:43:07;;;;;;;12.37;7.93;;;;;;;11.32;100.00;95647.53;4960666;28;20027;-93
2023/03/17 20:45:37;;;;;;;16.10;7.77;;;;;;;11.28;100.00;95653.34;4954480;28;20045;-93
2023/03/17 20:48:04;;;;;;;12.50;7.40;;;;;;;11.26;100.00;95655.31;4953995;28;20042;-93
2023/03/17 20:50:33;;;;;;;13.83;7.70;;;;;;;11.18;100.00;95663.31;4940595;29;20032;-93
2023/03/17 20:52:59;;;;;;;16.40;9.40;;;;;;;11.24;100.00;95657.34;4964080;28;20027;-93
2023/03/17 20:55:30;;;;;;;16.33;9.27;;;;;;;11.13;100.00;95655.09;4960547;28;20046;-93
2023/03/17 20:57:58;;;;;;;16.10;9.53;;;;;;;11.07;100.00;95648.75;4961471;28;20038;-93
2023/03/17 21:00:25;;;;;;;18.07;10.90;;;;;;;11.14;100.00;95640.97;4961409;28;20022;-93
2023/03/17 21:02:50;;;;;;;18.00;10.87;;;;;;;11.02;100.00;95646.63;4954102;28;20122;-93
2023/03/17 21:05:19;;;;;;;19.23;9.80;;;;;;;11.03;100.00;95650.94;4952449;28;20706;-93
2023/03/17 21:08:05;;;;;;;13.07;7.40;;;;;;;11.05;100.00;95656.00;4953862;28;20043;-93
2023/03/17 21:10:32;;;;;;;16.77;8.33;;;;;;;11.08;100.00;95659.09;4959889;28;20041;-93
2023/03/17 21:12:59;;;;;;;12.37;7.37;;;;;;;11.07;100.00;95659.28;4957065;28;20031;-93
2023/03/17 21:15:29;;;;;;;13.80;6.67;;;;;;;10.99;100.00;95665.41;4948632;28;20027;-93
2023/03/17 21:17:54;;;;;;;10.70;7.00;;;;;;;11.01;100.00;95663.44;4967415;28;20042;-94
2023/03/17 21:20:20;;;;;;;10.87;5.27;;;;;;;11.03;100.00;95671.13;4959680;28;20039;-92
2023/03/17 21:22:47;;;;;;;9.33;4.93;;;;;;;10.99;100.00;95678.56;4979885;28;20051;-93
2023/03/17 21:25:13;;;;;;;8.90;4.53;;;;;;;10.92;100.00;95677.63;4962158;28;20011;-93
2023/03/17 21:27:44;;;;;;;9.73;4.97;;;;;;;10.92;100.00;95672.38;4957860;28;20733;-93
2023/03/17 21:30:13;;;;;;;9.43;5.20;;;;;;;10.95;100.00;95676.47;4945420;28;20548;-93
2023/03/17 21:32:40;;;;;;;11.40;5.10;;;;;;;10.91;100.00;95675.19;4944426;28;20046;-93
2023/03/17 21:35:07;;;;;;;8.47;4.47;;;;;;;10.88;100.00;95671.09;4955192;28;20106;-93
2023/03/17 21:37:37;;;;;;;8.77;4.47;;;;;;;10.93;100.00;95676.66;4951650;28;20028;-93
2023/03/17 21:40:06;;;;;;;10.13;5.43;;;;;;;10.95;100.00;95668.56;4971976;28;20067;-92
2023/03/17 21:42:32;;;;;;;8.70;4.40;;;;;;;11.11;100.00;95673.72;4951900;28;20090;-93
2023/03/17 21:45:00;;;;;;;13.07;5.83;;;;;;;10.99;100.00;95670.66;4957817;28;20041;-93
2023/03/17 21:47:26;;;;;;;8.97;5.33;;;;;;;10.99;100.00;95670.66;4942319;28;20122;-93
2023/03/17 21:49:51;;;;;;;10.87;5.20;;;;;;;11.08;100.00;95669.63;4953911;28;20629;-93
2023/03/17 21:52:21;;;;;;;10.47;5.80;;;;;;;11.05;100.00;95662.06;4950528;28;20031;-92
2023/03/17 21:54:54;;;;;;;12.10;5.33;;;;;;;11.04;100.00;95670.97;4949139;28;20067;-93
2023/03/17 21:57:20;;;;;;;;;;;;;;;11.00;100.00;95664.44;4949060;29;20727;-93
2023/03/17 21:59:46;;;;;;;11.00;4.30;;;;;;;10.97;100.00;95662.16;4949026;28;19921;-93
2023/03/17 22:02:12;;;;;;;8.97;4.70;;;;;;;10.95;100.00;95666.75;4962957;28;20517;-93
2023/03/17 22:04:40;;;;;;;10.57;4.57;;;;;;;10.94;100.00;95664.31;4969166;28;20074;-93
2023/03/17 22:07:12;;;;;;;10.50;4.70;;;;;;;10.92;100.00;95671.56;4944159;28;20474;-93
2023/03/17 22:09:38;;;;;;;8.07;4.23;;;;;;;10.96;100.00;95668.38;4966838;28;20041;-93
2023/03/17 22:12:05;;;;;;;8.70;4.73;;;;;;;10.90;100.00;95674.38;4942291;28;20454;-93
2023/03/17 22:14:33;;;;;;;8.87;4.70;;;;;;;10.88;100.00;95672.91;4949662;29;20066;-91
2023/03/17 22:16:59;;;;;;;9.77;5.17;;;;;;;10.86;100.00;95665.16;4950896;28;20024;-91
2023/03/17 22:19:25;;;;;;;10.40;5.53;;;;;;;10.85;100.00;95672.25;4969962;28;20066;-91
2023/03/17 22:22:01;;;;;;;9.27;5.83;;;;;;;10.90;100.00;95679.63;4963201;28;20034;-92
2023/03/17 22:24:47;;;;;;;9.87;5.53;;;;;;;10.87;100.00;95673.91;4955390;28;20040;-91
2023/03/17 22:27:14;;;;;;;10.40;5.73;;;;;;;10.59;100.00;95683.06;4955920;28;20117;-90
2023/03/17 22:29:40;;;;;;;10.63;6.27;;;;;;;10.23;100.00;95682.75;4951811;28;20039;-91